Rasheeda — V7QH2 — position and weather

sailwx.info

Track history (hours):
 
Tides and Currents Weather Stations Pressure Air Temp Water Temp Dewpoint Dewpoint Depression Visibility Wind Speed Wind Dir Waves Ship Positions

Rasheeda

Last reported at 2017-Sep-26 07:14 UTC. Time now 2017-Oct-22 22:53 UTC.
Position N 36°16' E 014°53'.
Warning: this ship's position is 26 days out of date.

Length 345 m; draft 9.5 m.

Type: Ship (hazmat cat C). MMSI: 538003362.

Date/timePositionNaut miles runAvg speedWind from/ knotsBaromVisibWave heightAir tempDewpointWater temp
2017-Sep-26 07:14N 36°16' E 014°53'314.6
2017-Sep-26 06:59N 36°18' E 014°49'714.8
2017-Sep-26 06:30N 36°18' E 014°40'815.4
2017-Sep-26 06:00N 36°20' E 014°31'815.4
2017-Sep-26 05:30N 36°23' E 014°22'815.2
2017-Sep-26 05:00N 36°25' E 014°13'715.1
2017-Sep-26 04:30N 36°27' E 014°04'815.3
2017-Sep-26 04:00N 36°29' E 013°55'815.3
2017-Sep-26 03:30N 36°32' E 013°46'39914.9
2017-Sep-25 00:46N 37°33' E 005°33'715.4
2017-Sep-25 00:18N 37°32' E 005°24'515.2
2017-Sep-24 23:58N 37°31' E 005°18'815.2
2017-Sep-24 23:25N 37°31' E 005°07'4215.3
2017-Sep-24 20:42N 37°26' E 004°15'515.9
2017-Sep-24 20:24N 37°25' E 004°09'1615.8
2017-Sep-24 19:21N 37°23' E 003°49'715.3
2017-Sep-24 18:53N 37°23' E 003°40'915.1
2017-Sep-24 18:18N 37°22' E 003°28'514.9
2017-Sep-24 17:59N 37°22' E 003°23'2915.0
2017-Sep-24 16:04N 37°19' E 002°47'114.9
2017-Sep-24 16:00N 37°19' E 002°45'13015.1
2017-Sep-24 07:22N 36°49' E 000°06'  
2017-Sep-22 01:34N 36°41' W 009°33'116.0
2017-Sep-22 01:30N 36°41' W 009°34'4816.5
2017-Sep-21 22:36N 37°27' W 009°52'216.5
2017-Sep-21 22:27N 37°29' W 009°52'716.2
2017-Sep-21 22:00N 37°36' W 009°55'815.9
2017-Sep-21 21:29N 37°44' W 009°57'1115.5
2017-Sep-21 20:46N 37°55' W 009°60'415.8
2017-Sep-21 20:30N 37°60' W 010°00'816.0
2017-Sep-21 20:00N 38°07' W 010°02'816.4
2017-Sep-21 19:30N 38°15' W 010°05'816.6
2017-Sep-21 19:00N 38°24' W 010°06'816.7
2017-Sep-21 18:30N 38°32' W 010°09'816.3
2017-Sep-21 18:00N 38°40' W 010°11'816.2
2017-Sep-21 17:30N 38°48' W 010°10'816.6
2017-Sep-21 17:00N 38°56' W 010°11'816.2
2017-Sep-21 16:30N 39°04' W 010°11'816.3
2017-Sep-21 16:00N 39°12' W 010°11'62315.5
2017-Sep-19 23:56N 49°25' W 007°34'715.4
2017-Sep-19 23:30N 49°31' W 007°31'815.7
2017-Sep-19 22:59N 49°39' W 007°27'816.0
2017-Sep-19 22:27N 49°47' W 007°20'716.4
2017-Sep-19 22:00N 49°54' W 007°17'916.6
2017-Sep-19 21:29N 50°02' W 007°13'1216.2
2017-Sep-19 20:46N 50°12' W 007°03'3116.2
2017-Sep-19 18:51N 50°36' W 006°33'615.8
2017-Sep-19 18:28N 50°40' W 006°27'815.3
2017-Sep-19 17:55N 50°47' W 006°18'1115.1
2017-Sep-19 17:12N 50°55' W 006°08'414.9
2017-Sep-19 16:58N 50°58' W 006°04'814.8
2017-Sep-19 16:26N 51°04' W 005°56'714.8
2017-Sep-19 15:59N 51°10' W 005°50'914.8
2017-Sep-19 15:21N 51°17' W 005°40'614.9
2017-Sep-19 14:57N 51°21' W 005°34'714.8
2017-Sep-19 14:31N 51°26' W 005°27'815.0
2017-Sep-19 14:00N 51°32' W 005°19'713.9
2017-Sep-19 13:30N 51°38' W 005°13'4 8.8
2017-Sep-19 13:01N 51°41' W 005°09'3 4.4
2017-Sep-19 12:26N 51°42' W 005°05'0 0.0
2017-Sep-19 11:59N 51°42' W 005°05'0 0.0
2017-Sep-19 11:30N 51°42' W 005°05'0 0.0
2017-Sep-19 11:00N 51°42' W 005°05'0 0.0
2017-Sep-19 10:28N 51°42' W 005°05'0 0.0
2017-Sep-19 09:59N 51°42' W 005°05'0 0.0
2017-Sep-19 09:29N 51°42' W 005°05'0 0.0
2017-Sep-19 08:59N 51°42' W 005°05'0 0.0
2017-Sep-19 08:30N 51°42' W 005°05'0 0.0
2017-Sep-19 08:00N 51°42' W 005°05'0 0.0
2017-Sep-19 07:30N 51°42' W 005°05'0 0.0
2017-Sep-19 06:58N 51°42' W 005°05'0 0.0
2017-Sep-19 06:28N 51°42' W 005°05'0 0.0
2017-Sep-19 05:58N 51°42' W 005°05'0 0.0
2017-Sep-19 05:29N 51°42' W 005°05'0 0.0
2017-Sep-19 04:59N 51°42' W 005°05'0 0.0
2017-Sep-19 04:29N 51°42' W 005°05'0 0.0
2017-Sep-19 04:00N 51°42' W 005°05'0 0.0
2017-Sep-19 03:30N 51°42' W 005°05'0 0.0
2017-Sep-19 03:00N 51°42' W 005°05'0 0.0
2017-Sep-19 02:25N 51°42' W 005°05'0 0.0
2017-Sep-19 01:58N 51°42' W 005°05'0 0.0
2017-Sep-19 01:28N 51°42' W 005°05'0 0.0
2017-Sep-19 00:56N 51°42' W 005°05'0 0.0
2017-Sep-19 00:29N 51°42' W 005°05'0 0.0
2017-Sep-18 23:59N 51°42' W 005°05'0 0.0
2017-Sep-18 23:30N 51°42' W 005°05'0 0.0
2017-Sep-18 23:00N 51°42' W 005°05'0 0.0
2017-Sep-18 22:31N 51°42' W 005°05'0 0.0
2017-Sep-18 22:01N 51°42' W 005°05'0 0.0
2017-Sep-18 21:31N 51°42' W 005°05'0 0.0
2017-Sep-18 21:01N 51°42' W 005°05'0 0.0
2017-Sep-18 20:31N 51°42' W 005°05'0 0.0
2017-Sep-18 20:01N 51°42' W 005°05'0 0.0
2017-Sep-18 19:31N 51°42' W 005°05'0 0.0
2017-Sep-18 19:00N 51°42' W 005°05'0 0.0
2017-Sep-18 18:31N 51°42' W 005°05'0 0.0
2017-Sep-18 18:00N 51°42' W 005°05'0 0.0
2017-Sep-18 17:30N 51°42' W 005°05'0 0.0
2017-Sep-18 17:01N 51°42' W 005°05'0 0.0
2017-Sep-18 16:31N 51°42' W 005°05'0 0.0
2017-Sep-18 16:01N 51°42' W 005°05'0 0.0
2017-Sep-18 15:30N 51°42' W 005°05'0 0.0
2017-Sep-18 15:00N 51°42' W 005°05'0 0.0
2017-Sep-18 14:31N 51°42' W 005°05'0 0.0
2017-Sep-18 14:01N 51°42' W 005°05'0 0.0
2017-Sep-18 13:31N 51°42' W 005°05'0 0.0
2017-Sep-18 13:01N 51°42' W 005°05'0 0.0
2017-Sep-18 12:30N 51°42' W 005°05'0 0.0
2017-Sep-18 12:01N 51°42' W 005°05'0 0.0
2017-Sep-18 11:31N 51°42' W 005°05'0 0.0
2017-Sep-18 11:01N 51°42' W 005°05'0 0.0
2017-Sep-18 10:30N 51°42' W 005°05'0 0.0
2017-Sep-18 10:01N 51°42' W 005°05'0 0.0
2017-Sep-18 09:30N 51°42' W 005°05'0 0.0
2017-Sep-18 09:01N 51°42' W 005°05'0 0.0
2017-Sep-18 08:31N 51°42' W 005°05'0 0.0
2017-Sep-18 08:01N 51°42' W 005°05'0 0.0
2017-Sep-18 07:30N 51°42' W 005°05'0 0.0
2017-Sep-18 07:01N 51°42' W 005°05'0 0.0
2017-Sep-18 06:31N 51°42' W 005°05'0 0.0
2017-Sep-18 06:01N 51°42' W 005°05'0 0.0
2017-Sep-18 05:30N 51°42' W 005°05'0 0.0
2017-Sep-18 05:01N 51°42' W 005°05'0 0.0
2017-Sep-18 04:30N 51°42' W 005°05'0 0.0
2017-Sep-18 04:00N 51°42' W 005°05'0 0.0
2017-Sep-18 03:31N 51°42' W 005°05'1 1.4
2017-Sep-18 03:00N 51°42' W 005°06'3 5.6
2017-Sep-18 02:30N 51°40' W 005°10'3 6.8
2017-Sep-18 02:01N 51°37' W 005°13'3 6.1
2017-Sep-18 01:31N 51°35' W 005°16'4 8.9
2017-Sep-18 01:01N 51°32' W 005°20'612.5
2017-Sep-18 00:31N 51°27' W 005°26'612.6
2017-Sep-18 00:01N 51°22' W 005°33'612.4
2017-Sep-17 23:31N 51°17' W 005°39'612.8
2017-Sep-17 23:00N 51°12' W 005°46'714.4
2017-Sep-17 22:30N 51°07' W 005°53'814.4
2017-Sep-17 21:58N 51°01' W 006°01'  
Track history (hours):
 
Tides and Currents Weather Stations Pressure Air Temp Water Temp Dewpoint Dewpoint Depression Visibility Wind Speed Wind Dir Waves Ship Positions

Rasheeda

Last reported at 2017-Sep-26 07:14 UTC. Time now 2017-Oct-22 22:53 UTC.
Position N 36°16' E 014°53'.
Warning: this ship's position is 26 days out of date.

Length 345 m; draft 9.5 m.

Type: Ship (hazmat cat C). MMSI: 538003362.

Date/timePositionNaut miles runAvg speedWind from/ knotsBaromVisibWave heightAir tempDewpointWater temp
2017-Sep-26 07:14N 36°16' E 014°53'314.6
2017-Sep-26 06:59N 36°18' E 014°49'714.8
2017-Sep-26 06:30N 36°18' E 014°40'815.4
2017-Sep-26 06:00N 36°20' E 014°31'815.4
2017-Sep-26 05:30N 36°23' E 014°22'815.2
2017-Sep-26 05:00N 36°25' E 014°13'715.1
2017-Sep-26 04:30N 36°27' E 014°04'815.3
2017-Sep-26 04:00N 36°29' E 013°55'815.3
2017-Sep-26 03:30N 36°32' E 013°46'39914.9
2017-Sep-25 00:46N 37°33' E 005°33'715.4
2017-Sep-25 00:18N 37°32' E 005°24'515.2
2017-Sep-24 23:58N 37°31' E 005°18'815.2
2017-Sep-24 23:25N 37°31' E 005°07'4215.3
2017-Sep-24 20:42N 37°26' E 004°15'515.9
2017-Sep-24 20:24N 37°25' E 004°09'1615.8
2017-Sep-24 19:21N 37°23' E 003°49'715.3
2017-Sep-24 18:53N 37°23' E 003°40'915.1
2017-Sep-24 18:18N 37°22' E 003°28'514.9
2017-Sep-24 17:59N 37°22' E 003°23'2915.0
2017-Sep-24 16:04N 37°19' E 002°47'114.9
2017-Sep-24 16:00N 37°19' E 002°45'13015.1
2017-Sep-24 07:22N 36°49' E 000°06'  
2017-Sep-22 01:34N 36°41' W 009°33'116.0
2017-Sep-22 01:30N 36°41' W 009°34'4816.5
2017-Sep-21 22:36N 37°27' W 009°52'216.5
2017-Sep-21 22:27N 37°29' W 009°52'716.2
2017-Sep-21 22:00N 37°36' W 009°55'815.9
2017-Sep-21 21:29N 37°44' W 009°57'1115.5
2017-Sep-21 20:46N 37°55' W 009°60'415.8
2017-Sep-21 20:30N 37°60' W 010°00'816.0
2017-Sep-21 20:00N 38°07' W 010°02'816.4
2017-Sep-21 19:30N 38°15' W 010°05'816.6
2017-Sep-21 19:00N 38°24' W 010°06'816.7
2017-Sep-21 18:30N 38°32' W 010°09'816.3
2017-Sep-21 18:00N 38°40' W 010°11'816.2
2017-Sep-21 17:30N 38°48' W 010°10'816.6
2017-Sep-21 17:00N 38°56' W 010°11'816.2
2017-Sep-21 16:30N 39°04' W 010°11'816.3
2017-Sep-21 16:00N 39°12' W 010°11'62315.5
2017-Sep-19 23:56N 49°25' W 007°34'715.4
2017-Sep-19 23:30N 49°31' W 007°31'815.7
2017-Sep-19 22:59N 49°39' W 007°27'816.0
2017-Sep-19 22:27N 49°47' W 007°20'716.4
2017-Sep-19 22:00N 49°54' W 007°17'916.6
2017-Sep-19 21:29N 50°02' W 007°13'1216.2
2017-Sep-19 20:46N 50°12' W 007°03'3116.2
2017-Sep-19 18:51N 50°36' W 006°33'615.8
2017-Sep-19 18:28N 50°40' W 006°27'815.3
2017-Sep-19 17:55N 50°47' W 006°18'1115.1
2017-Sep-19 17:12N 50°55' W 006°08'414.9
2017-Sep-19 16:58N 50°58' W 006°04'814.8
2017-Sep-19 16:26N 51°04' W 005°56'714.8
2017-Sep-19 15:59N 51°10' W 005°50'914.8
2017-Sep-19 15:21N 51°17' W 005°40'614.9
2017-Sep-19 14:57N 51°21' W 005°34'714.8
2017-Sep-19 14:31N 51°26' W 005°27'815.0
2017-Sep-19 14:00N 51°32' W 005°19'713.9
2017-Sep-19 13:30N 51°38' W 005°13'4 8.8
2017-Sep-19 13:01N 51°41' W 005°09'3 4.4
2017-Sep-19 12:26N 51°42' W 005°05'0 0.0
2017-Sep-19 11:59N 51°42' W 005°05'0 0.0
2017-Sep-19 11:30N 51°42' W 005°05'0 0.0
2017-Sep-19 11:00N 51°42' W 005°05'0 0.0
2017-Sep-19 10:28N 51°42' W 005°05'0 0.0
2017-Sep-19 09:59N 51°42' W 005°05'0 0.0
2017-Sep-19 09:29N 51°42' W 005°05'0 0.0
2017-Sep-19 08:59N 51°42' W 005°05'0 0.0
2017-Sep-19 08:30N 51°42' W 005°05'0 0.0
2017-Sep-19 08:00N 51°42' W 005°05'0 0.0
2017-Sep-19 07:30N 51°42' W 005°05'0 0.0
2017-Sep-19 06:58N 51°42' W 005°05'0 0.0
2017-Sep-19 06:28N 51°42' W 005°05'0 0.0
2017-Sep-19 05:58N 51°42' W 005°05'0 0.0
2017-Sep-19 05:29N 51°42' W 005°05'0 0.0
2017-Sep-19 04:59N 51°42' W 005°05'0 0.0
2017-Sep-19 04:29N 51°42' W 005°05'0 0.0
2017-Sep-19 04:00N 51°42' W 005°05'0 0.0
2017-Sep-19 03:30N 51°42' W 005°05'0 0.0
2017-Sep-19 03:00N 51°42' W 005°05'0 0.0
2017-Sep-19 02:25N 51°42' W 005°05'0 0.0
2017-Sep-19 01:58N 51°42' W 005°05'0 0.0
2017-Sep-19 01:28N 51°42' W 005°05'0 0.0
2017-Sep-19 00:56N 51°42' W 005°05'0 0.0
2017-Sep-19 00:29N 51°42' W 005°05'0 0.0
2017-Sep-18 23:59N 51°42' W 005°05'0 0.0
2017-Sep-18 23:30N 51°42' W 005°05'0 0.0
2017-Sep-18 23:00N 51°42' W 005°05'0 0.0
2017-Sep-18 22:31N 51°42' W 005°05'0 0.0
2017-Sep-18 22:01N 51°42' W 005°05'0 0.0
2017-Sep-18 21:31N 51°42' W 005°05'0 0.0
2017-Sep-18 21:01N 51°42' W 005°05'0 0.0
2017-Sep-18 20:31N 51°42' W 005°05'0 0.0
2017-Sep-18 20:01N 51°42' W 005°05'0 0.0
2017-Sep-18 19:31N 51°42' W 005°05'0 0.0
2017-Sep-18 19:00N 51°42' W 005°05'0 0.0
2017-Sep-18 18:31N 51°42' W 005°05'0 0.0
2017-Sep-18 18:00N 51°42' W 005°05'0 0.0
2017-Sep-18 17:30N 51°42' W 005°05'0 0.0
2017-Sep-18 17:01N 51°42' W 005°05'0 0.0
2017-Sep-18 16:31N 51°42' W 005°05'0 0.0
2017-Sep-18 16:01N 51°42' W 005°05'0 0.0
2017-Sep-18 15:30N 51°42' W 005°05'0 0.0
2017-Sep-18 15:00N 51°42' W 005°05'0 0.0
2017-Sep-18 14:31N 51°42' W 005°05'0 0.0
2017-Sep-18 14:01N 51°42' W 005°05'0 0.0
2017-Sep-18 13:31N 51°42' W 005°05'0 0.0
2017-Sep-18 13:01N 51°42' W 005°05'0 0.0
2017-Sep-18 12:30N 51°42' W 005°05'0 0.0
2017-Sep-18 12:01N 51°42' W 005°05'0 0.0
2017-Sep-18 11:31N 51°42' W 005°05'0 0.0
2017-Sep-18 11:01N 51°42' W 005°05'0 0.0
2017-Sep-18 10:30N 51°42' W 005°05'0 0.0
2017-Sep-18 10:01N 51°42' W 005°05'0 0.0
2017-Sep-18 09:30N 51°42' W 005°05'0 0.0
2017-Sep-18 09:01N 51°42' W 005°05'0 0.0
2017-Sep-18 08:31N 51°42' W 005°05'0 0.0
2017-Sep-18 08:01N 51°42' W 005°05'0 0.0
2017-Sep-18 07:30N 51°42' W 005°05'0 0.0
2017-Sep-18 07:01N 51°42' W 005°05'0 0.0
2017-Sep-18 06:31N 51°42' W 005°05'0 0.0
2017-Sep-18 06:01N 51°42' W 005°05'0 0.0
2017-Sep-18 05:30N 51°42' W 005°05'0 0.0
2017-Sep-18 05:01N 51°42' W 005°05'0 0.0
2017-Sep-18 04:30N 51°42' W 005°05'0 0.0
2017-Sep-18 04:00N 51°42' W 005°05'0 0.0
2017-Sep-18 03:31N 51°42' W 005°05'1 1.4
2017-Sep-18 03:00N 51°42' W 005°06'3 5.6
2017-Sep-18 02:30N 51°40' W 005°10'3 6.8
2017-Sep-18 02:01N 51°37' W 005°13'3 6.1
2017-Sep-18 01:31N 51°35' W 005°16'4 8.9
2017-Sep-18 01:01N 51°32' W 005°20'612.5
2017-Sep-18 00:31N 51°27' W 005°26'612.6
2017-Sep-18 00:01N 51°22' W 005°33'612.4
2017-Sep-17 23:31N 51°17' W 005°39'612.8
2017-Sep-17 23:00N 51°12' W 005°46'714.4
2017-Sep-17 22:30N 51°07' W 005°53'814.4
2017-Sep-17 21:58N 51°01' W 006°01'  

Dump ship's entire track history